Jiggiga, Ethiopia
Current Conditions -  °F | °C
As of 4:55 AM on Saturday 29 Nov 2014 (Local Time) from KQRH Reporting Station
Broken Clouds Broken Clouds  
Wind Chill: 78°   Ceiling: 3800
Heat Index: 80°   Visibility: 6mi
Dew Point: 69°   Wind: 3mph
Humidity: 72%   Direction: 190°S
Pressure: 29.98"   Gusts: NA
Location:  9.33°N, 42.8°E
Report Text: KQRH 290155Z AUTO 19003KT 9999 FEW030 BKN038 26/20 A2998 RMK AO2 SLP151 T02560203
Loading
Personal Weather Stations






























Interactive Weather Map New forecast layout! Learn more

10-Day Weather Forecast

Advertisements
Track Severe Weather on mobile